createdAt,value
2018-08-22T00:02:07.531Z,2.05
2018-08-22T00:04:36.003Z,1.90
2018-08-22T00:07:04.466Z,2.15
2018-08-22T00:09:32.925Z,2.05
2018-08-22T00:12:01.385Z,2.35
2018-08-22T00:14:30.634Z,2.25
2018-08-22T00:16:59.458Z,2.00
2018-08-22T00:19:27.923Z,2.40
2018-08-22T00:21:56.365Z,2.45
2018-08-22T00:24:24.826Z,2.05
2018-08-22T00:26:53.329Z,2.52
2018-08-22T00:29:21.983Z,2.20
2018-08-22T00:31:50.786Z,2.15
2018-08-22T00:34:19.616Z,2.35
2018-08-22T00:36:48.072Z,1.87
2018-08-22T00:39:16.535Z,2.25
2018-08-22T00:41:45.019Z,2.70
2018-08-22T00:44:13.842Z,2.10
2018-08-22T00:46:42.302Z,2.00
2018-08-22T00:49:10.773Z,2.20
2018-08-22T00:51:39.252Z,3.00
2018-08-22T00:54:07.737Z,2.35
2018-08-22T00:56:36.209Z,2.52
2018-08-22T00:59:04.690Z,2.30
2018-08-22T01:01:33.169Z,2.25
2018-08-22T01:04:01.667Z,2.05
2018-08-22T01:06:30.141Z,1.95
2018-08-22T01:08:58.612Z,2.80
2018-08-22T01:11:27.138Z,2.33
2018-08-22T01:13:55.585Z,2.08
2018-08-22T01:16:24.029Z,3.02
2018-08-22T01:18:52.511Z,2.30
2018-08-22T01:21:21.276Z,2.00
2018-08-22T01:23:50.048Z,2.70
2018-08-22T01:26:18.545Z,2.25
2018-08-22T01:28:47.005Z,2.35
2018-08-22T01:38:20.442Z,2.15
2018-08-22T01:40:48.878Z,2.45
2018-08-22T01:43:17.354Z,2.77
2018-08-22T01:45:45.811Z,2.35
2018-08-22T01:48:14.277Z,2.55
2018-08-22T01:50:43.068Z,3.00
2018-08-22T01:53:11.537Z,2.70
2018-08-22T01:55:40.005Z,2.35
2018-08-22T01:58:08.777Z,3.10
2018-08-22T02:00:37.247Z,2.95
2018-08-22T02:03:05.395Z,3.37
2018-08-22T02:05:33.888Z,2.83
2018-08-22T02:08:02.319Z,3.15
2018-08-22T02:10:30.762Z,3.20
2018-08-22T02:12:59.226Z,2.92
2018-08-22T02:15:27.676Z,3.22
2018-08-22T02:17:56.144Z,3.37
2018-08-22T02:20:24.597Z,3.08
2018-08-22T02:22:53.064Z,2.65
2018-08-22T02:25:21.530Z,2.98
2018-08-22T02:27:49.988Z,3.10
2018-08-22T02:30:18.445Z,3.60
2018-08-22T02:32:46.922Z,3.40
2018-08-22T02:35:15.401Z,3.95
2018-08-22T02:37:43.858Z,3.27
2018-08-22T02:40:12.650Z,3.22
2018-08-22T02:42:41.396Z,3.05
2018-08-22T02:45:09.914Z,3.20
2018-08-22T02:47:38.362Z,2.60
2018-08-22T02:50:06.901Z,3.02
2018-08-22T02:52:35.390Z,2.77
2018-08-22T02:55:04.178Z,3.08
2018-08-22T02:57:32.998Z,3.33
2018-08-22T03:00:01.446Z,3.35
2018-08-22T03:02:29.945Z,3.42
2018-08-22T03:04:58.410Z,3.30
2018-08-22T03:07:26.881Z,3.65
2018-08-22T03:09:55.362Z,3.05
2018-08-22T03:12:23.822Z,3.25
2018-08-22T03:14:52.694Z,2.85
2018-08-22T03:17:21.350Z,3.20
2018-08-22T03:19:49.832Z,2.80
2018-08-22T03:22:18.668Z,3.15
2018-08-22T03:24:47.170Z,3.98
2018-08-22T03:27:15.678Z,3.12
2018-08-22T03:29:44.158Z,3.40
2018-08-22T03:32:12.688Z,3.02
2018-08-22T03:34:41.523Z,2.50
2018-08-22T03:37:10.226Z,3.15
2018-08-22T03:39:39.661Z,2.70
2018-08-22T03:42:08.139Z,3.10
2018-08-22T03:44:36.943Z,3.72
2018-08-22T03:47:06.115Z,2.33
2018-08-22T03:49:35.333Z,3.08
2018-08-22T03:52:08.409Z,2.58
2018-08-22T03:54:37.808Z,3.10
2018-08-22T03:57:06.319Z,2.67
2018-08-22T03:59:35.188Z,2.80
2018-08-22T04:02:03.785Z,2.72
2018-08-22T04:04:32.258Z,3.42
2018-08-22T04:07:05.563Z,4.28
2018-08-22T04:09:35.114Z,3.95
2018-08-22T04:12:03.928Z,3.00
2018-08-22T04:14:32.999Z,3.35
2018-08-22T04:17:07.406Z,3.20
2018-08-22T04:19:36.270Z,2.50
2018-08-22T04:23:08.125Z,3.27
2018-08-22T04:25:36.601Z,3.17
2018-08-22T04:28:05.406Z,3.00
2018-08-22T04:30:34.721Z,2.70
2018-08-22T04:35:55.783Z,3.20
2018-08-22T04:38:28.499Z,3.10
2018-08-22T04:49:43.583Z,3.33
2018-08-22T04:52:12.148Z,3.22
2018-08-22T04:54:40.933Z,3.37
2018-08-22T04:57:10.977Z,3.30
2018-08-22T04:59:40.048Z,3.22
2018-08-22T05:02:09.058Z,4.03
2018-08-22T05:04:37.514Z,3.00
2018-08-22T05:07:06.291Z,3.22
2018-08-22T05:09:34.831Z,3.08
2018-08-22T05:12:04.199Z,3.80
2018-08-22T05:14:32.649Z,3.55
2018-08-22T05:17:01.143Z,3.45
2018-08-22T05:19:29.613Z,3.17
2018-08-22T05:21:58.048Z,2.70
2018-08-22T05:24:26.523Z,3.60
2018-08-22T05:26:54.967Z,3.40
2018-08-22T05:29:23.454Z,3.47
2018-08-22T05:31:52.250Z,2.65
2018-08-22T05:34:23.669Z,3.35
2018-08-22T05:36:52.162Z,2.95
2018-08-22T05:39:20.612Z,2.47
2018-08-22T05:41:49.104Z,2.70
2018-08-22T05:44:17.765Z,3.72
2018-08-22T05:46:47.337Z,3.10
2018-08-22T05:49:15.833Z,3.55
2018-08-22T05:51:45.591Z,3.17
2018-08-22T05:54:14.041Z,2.90
2018-08-22T05:56:42.507Z,2.90
2018-08-22T05:59:11.026Z,3.35
2018-08-22T06:01:39.818Z,3.02
2018-08-22T06:04:09.662Z,3.40
2018-08-22T06:06:38.460Z,3.08
2018-08-22T06:09:09.659Z,2.80
2018-08-22T06:11:39.522Z,3.30
2018-08-22T06:14:07.986Z,4.17
2018-08-22T06:16:36.490Z,2.90
2018-08-22T06:19:04.984Z,2.85
2018-08-22T06:21:34.114Z,2.85
2018-08-22T06:24:02.887Z,3.27
2018-08-22T06:26:31.686Z,3.80
2018-08-22T06:29:00.461Z,2.80
2018-08-22T06:31:28.929Z,2.92
2018-08-22T06:33:57.407Z,9.23
2018-08-22T06:36:25.989Z,6.47
2018-08-22T06:38:54.570Z,4.42
2018-08-22T06:41:23.040Z,3.77
2018-08-22T06:43:51.481Z,4.83
2018-08-22T06:46:19.927Z,3.60
2018-08-22T06:48:48.390Z,4.60
2018-08-22T06:51:16.830Z,3.45
2018-08-22T06:53:45.289Z,3.33
2018-08-22T06:56:13.713Z,3.60
2018-08-22T06:58:42.164Z,3.58
2018-08-22T07:01:10.617Z,2.95
2018-08-22T07:03:39.386Z,3.47
2018-08-22T07:06:07.821Z,3.05
2018-08-22T07:08:36.253Z,3.60
2018-08-22T07:11:05.534Z,3.33
2018-08-22T07:13:34.320Z,2.40
2018-08-22T07:16:02.786Z,2.30
2018-08-22T07:18:31.238Z,2.75
2018-08-22T07:20:59.770Z,2.60
2018-08-22T07:23:28.391Z,2.55
2018-08-22T07:25:56.866Z,2.05
2018-08-22T07:28:25.316Z,2.60
2018-08-22T07:30:53.765Z,1.95
2018-08-22T07:33:22.566Z,2.25
2018-08-22T07:35:51.042Z,2.00
2018-08-22T07:38:19.670Z,2.25
2018-08-22T07:40:48.148Z,2.47
2018-08-22T07:43:16.595Z,2.37
2018-08-22T07:45:45.050Z,2.42
2018-08-22T07:48:13.510Z,2.15
2018-08-22T07:50:42.311Z,2.40
2018-08-22T07:53:10.814Z,2.80
2018-08-22T07:55:40.881Z,1.82
2018-08-22T07:58:09.326Z,1.87
2018-08-22T08:00:37.778Z,2.10
2018-08-22T08:03:06.240Z,2.15
2018-08-22T08:05:34.746Z,2.20
2018-08-22T08:08:03.323Z,1.98
2018-08-22T08:10:32.770Z,2.12
2018-08-22T08:13:02.156Z,2.00
2018-08-22T08:15:30.631Z,1.90
2018-08-22T08:17:59.406Z,2.17
2018-08-22T08:20:27.849Z,2.02
2018-08-22T08:22:56.292Z,1.52
2018-08-22T08:25:24.738Z,1.92
2018-08-22T08:27:53.197Z,2.20
2018-08-22T08:30:21.416Z,2.63
2018-08-22T08:32:49.847Z,1.60
2018-08-22T08:35:18.275Z,1.87
2018-08-22T08:37:46.437Z,2.20
2018-08-22T08:40:14.902Z,1.62
2018-08-22T08:42:43.100Z,1.97
2018-08-22T08:45:11.931Z,2.20
2018-08-22T08:47:40.223Z,2.13
2018-08-22T08:50:08.586Z,2.63
2018-08-22T08:52:37.115Z,2.53
2018-08-22T08:55:05.586Z,2.73
2018-08-22T08:57:33.806Z,3.20
2018-08-22T09:00:02.320Z,2.63
2018-08-22T09:02:30.527Z,3.03
2018-08-22T09:04:58.713Z,3.30
2018-08-22T09:07:26.885Z,2.60
2018-08-22T09:09:55.786Z,3.07
2018-08-22T09:12:24.046Z,3.03
2018-08-22T09:14:52.370Z,2.97
2018-08-22T09:17:20.599Z,2.97
2018-08-22T09:19:48.942Z,3.10
2018-08-22T09:22:17.135Z,3.57
2018-08-22T09:24:45.465Z,4.60
2018-08-22T09:27:13.663Z,2.90
2018-08-22T09:29:42.291Z,3.87
2018-08-22T09:32:10.566Z,3.77
2018-08-22T09:34:39.268Z,3.77
2018-08-22T09:37:07.472Z,3.97
2018-08-22T09:39:36.804Z,3.80
2018-08-22T09:42:05.577Z,3.53
2018-08-22T09:44:34.568Z,5.63
2018-08-22T09:47:02.855Z,4.00
2018-08-22T09:49:31.039Z,4.23
2018-08-22T09:51:59.225Z,4.33
2018-08-22T09:54:28.108Z,3.80
2018-08-22T09:56:56.589Z,3.73
2018-08-22T09:59:25.319Z,3.60
2018-08-22T10:01:53.870Z,3.53
2018-08-22T10:04:22.417Z,3.80
2018-08-22T10:06:51.492Z,3.57
2018-08-22T10:09:22.004Z,4.00
2018-08-22T10:11:51.052Z,3.50
2018-08-22T10:14:19.220Z,3.80
2018-08-22T10:16:47.723Z,4.50
2018-08-22T10:19:16.306Z,3.50
2018-08-22T10:21:45.357Z,4.10
2018-08-22T10:24:13.525Z,3.93
2018-08-22T10:26:42.078Z,4.03
2018-08-22T10:29:10.421Z,3.80
2018-08-22T10:31:39.860Z,4.70
2018-08-22T10:34:08.679Z,3.90
2018-08-22T10:36:36.867Z,4.10
2018-08-22T10:39:07.261Z,4.20
2018-08-22T10:41:35.636Z,3.50
2018-08-22T10:44:03.818Z,3.47
2018-08-22T10:46:32.345Z,4.40
2018-08-22T10:49:00.517Z,4.50
2018-08-22T10:51:28.728Z,4.13
2018-08-22T10:53:56.933Z,3.80
2018-08-22T10:56:25.613Z,3.57
2018-08-22T10:58:53.950Z,4.43
2018-08-22T11:01:22.350Z,4.63
2018-08-22T11:03:50.892Z,4.30
2018-08-22T11:06:19.558Z,3.87
2018-08-22T11:08:48.305Z,3.40
2018-08-22T11:11:17.606Z,4.13
2018-08-22T11:13:46.178Z,3.80
2018-08-22T11:16:14.364Z,3.97
2018-08-22T11:18:42.547Z,3.37
2018-08-22T11:21:22.269Z,8.00
2018-08-22T11:24:02.241Z,4.13
2018-08-22T11:26:41.854Z,4.20
2018-08-22T11:29:21.381Z,3.93
2018-08-22T11:32:00.874Z,3.70
2018-08-22T11:34:40.766Z,6.37
2018-08-22T11:37:10.615Z,4.53
2018-08-22T11:39:38.861Z,3.90
2018-08-22T11:42:07.248Z,4.70
2018-08-22T11:44:35.852Z,4.23
2018-08-22T11:47:04.346Z,3.17
2018-08-22T11:49:33.354Z,3.90
2018-08-22T11:52:02.301Z,3.50
2018-08-22T11:54:32.417Z,4.40
2018-08-22T11:57:01.165Z,4.07
2018-08-22T11:59:29.774Z,4.27
2018-08-22T12:02:00.523Z,3.70
2018-08-22T12:04:28.834Z,4.53
2018-08-22T12:06:57.349Z,4.37
2018-08-22T12:09:25.564Z,4.07
2018-08-22T12:11:54.069Z,3.70
2018-08-22T12:14:22.282Z,4.33
2018-08-22T12:16:50.795Z,3.60
2018-08-22T12:19:19.385Z,4.47
2018-08-22T12:21:47.554Z,3.67
2018-08-22T12:24:15.743Z,4.30
2018-08-22T12:26:44.255Z,4.10
2018-08-22T12:29:12.760Z,4.50
2018-08-22T12:31:42.379Z,4.10
2018-08-22T12:34:10.590Z,3.60
2018-08-22T12:36:38.771Z,3.73
2018-08-22T12:39:08.020Z,4.20
2018-08-22T12:41:37.755Z,3.83
2018-08-22T12:44:06.268Z,4.37
2018-08-22T12:46:34.974Z,4.17
2018-08-22T12:49:03.483Z,3.57
2018-08-22T12:51:32.091Z,4.00
2018-08-22T12:54:00.284Z,4.30
2018-08-22T12:56:28.437Z,3.70
2018-08-22T12:58:56.632Z,3.80
2018-08-22T13:01:24.801Z,3.70
2018-08-22T13:05:18.006Z,3.83
2018-08-22T13:07:46.518Z,4.40
2018-08-22T13:10:15.059Z,3.67
2018-08-22T13:12:43.912Z,3.67
2018-08-22T13:15:12.770Z,4.03
2018-08-22T13:17:40.950Z,3.60
2018-08-22T13:20:09.497Z,3.13
2018-08-22T13:22:38.370Z,3.10
2018-08-22T13:25:07.229Z,3.77
2018-08-22T13:27:35.423Z,4.47
2018-08-22T13:30:03.969Z,3.67
2018-08-22T13:32:32.669Z,3.20
2018-08-22T13:35:01.160Z,4.03
2018-08-22T13:37:29.398Z,3.70
2018-08-22T13:39:58.176Z,3.73
2018-08-22T13:42:26.337Z,3.70
2018-08-22T13:44:54.522Z,3.93
2018-08-22T13:47:23.036Z,3.73
2018-08-22T13:49:51.213Z,3.70
2018-08-22T13:52:20.019Z,3.83
2018-08-22T13:54:48.208Z,4.00
2018-08-22T13:57:16.388Z,3.60
2018-08-22T13:59:44.904Z,4.20
2018-08-22T14:02:13.071Z,3.50
2018-08-22T14:04:41.566Z,3.83
2018-08-22T14:07:09.746Z,3.80
2018-08-22T14:09:38.257Z,3.77
2018-08-22T14:12:07.153Z,3.63
2018-08-22T14:14:35.529Z,3.30
2018-08-22T14:17:04.127Z,3.80
2018-08-22T14:19:32.631Z,4.27
2018-08-22T14:22:01.177Z,3.60
2018-08-22T14:24:30.451Z,4.13
2018-08-22T14:26:59.049Z,3.70
2018-08-22T14:29:27.569Z,3.50
2018-08-22T14:31:56.158Z,3.60
2018-08-22T14:34:24.845Z,3.40
2018-08-22T14:36:54.004Z,3.47
2018-08-22T14:39:22.898Z,3.63
2018-08-22T14:41:51.594Z,4.27
2018-08-22T14:44:19.840Z,3.90
2018-08-22T14:46:48.361Z,3.70
2018-08-22T14:49:16.875Z,4.20
2018-08-22T14:51:45.455Z,3.87
2018-08-22T14:54:13.639Z,3.40
2018-08-22T14:56:41.842Z,4.17
2018-08-22T14:59:10.705Z,4.03
2018-08-22T15:01:39.221Z,4.07
2018-08-22T15:04:07.767Z,4.00
2018-08-22T15:06:36.301Z,3.97
2018-08-22T15:09:10.941Z,3.60
2018-08-22T15:11:39.606Z,3.73
2018-08-22T15:14:09.308Z,3.10
2018-08-22T15:16:37.816Z,3.20
2018-08-22T15:19:06.094Z,3.83
2018-08-22T15:21:34.432Z,3.60
2018-08-22T15:24:02.814Z,3.47
2018-08-22T15:26:30.997Z,3.27
2018-08-22T15:28:59.712Z,3.40
2018-08-22T15:31:27.865Z,3.20
2018-08-22T15:33:56.110Z,3.23
2018-08-22T15:36:24.453Z,3.77
2018-08-22T15:38:52.932Z,3.73
2018-08-22T15:41:21.185Z,3.83
2018-08-22T15:43:49.521Z,3.47
2018-08-22T15:46:17.745Z,3.37
2018-08-22T15:48:46.605Z,3.83
2018-08-22T15:51:15.448Z,4.10
2018-08-22T15:53:43.972Z,3.40
2018-08-22T15:56:12.197Z,3.87
2018-08-22T15:58:40.743Z,3.67
2018-08-22T16:01:09.262Z,3.60
2018-08-22T16:03:37.453Z,3.40
2018-08-22T16:06:05.978Z,3.57
2018-08-22T16:08:34.159Z,3.93
2018-08-22T16:11:06.793Z,4.20
2018-08-22T16:13:35.155Z,3.43
2018-08-22T16:16:03.539Z,3.13
2018-08-22T16:18:34.098Z,3.37
2018-08-22T16:21:03.806Z,3.20
2018-08-22T16:23:34.749Z,3.03
2018-08-22T16:26:05.079Z,4.23
2018-08-22T16:28:45.932Z,3.20
2018-08-22T16:31:15.069Z,3.50
2018-08-22T16:33:43.739Z,3.23
2018-08-22T16:36:16.360Z,3.00
2018-08-22T16:38:44.550Z,3.53
2018-08-22T16:41:12.746Z,4.00
2018-08-22T16:45:06.373Z,3.30
2018-08-22T16:47:36.452Z,3.33
2018-08-22T16:50:06.471Z,4.17
2018-08-22T16:52:34.659Z,3.63
2018-08-22T16:55:12.902Z,3.70
2018-08-22T16:57:41.824Z,3.37
2018-08-22T17:00:10.429Z,3.00
2018-08-22T17:02:38.989Z,3.50
2018-08-22T17:05:07.487Z,3.33
2018-08-22T17:07:35.749Z,3.57
2018-08-22T17:10:04.517Z,3.50
2018-08-22T17:12:44.546Z,3.97
2018-08-22T17:15:12.891Z,3.83
2018-08-22T17:17:41.367Z,3.70
2018-08-22T17:20:10.858Z,3.30
2018-08-22T17:22:39.212Z,3.73
2018-08-22T17:25:08.166Z,3.70
2018-08-22T17:27:36.723Z,3.70
2018-08-22T17:30:04.991Z,3.53
2018-08-22T17:32:33.468Z,3.80
2018-08-22T17:35:01.663Z,3.23
2018-08-22T17:37:29.840Z,4.13
2018-08-22T17:39:58.742Z,4.13
2018-08-22T17:42:27.861Z,4.30
2018-08-22T17:44:56.381Z,4.40
2018-08-22T17:47:24.602Z,3.77
2018-08-22T17:50:06.688Z,3.63
2018-08-22T17:52:35.131Z,3.37
2018-08-22T17:56:27.940Z,4.17
2018-08-22T17:58:57.116Z,3.73
2018-08-22T18:01:25.902Z,3.57
2018-08-22T18:03:56.176Z,4.27
2018-08-22T18:06:25.386Z,4.60
2018-08-22T18:11:45.718Z,4.80
2018-08-22T18:14:18.491Z,4.50
2018-08-22T18:16:50.174Z,4.07
2018-08-22T18:19:18.410Z,4.10
2018-08-22T18:21:58.356Z,4.20
2018-08-22T18:24:28.002Z,3.60
2018-08-22T18:26:56.266Z,3.37
2018-08-22T18:29:25.907Z,4.23
2018-08-22T18:31:54.105Z,4.10
2018-08-22T18:34:23.153Z,3.87
2018-08-22T18:36:51.963Z,4.57
2018-08-22T18:39:20.890Z,3.93
2018-08-22T18:41:49.433Z,4.83
2018-08-22T18:44:17.982Z,3.73
2018-08-22T18:46:46.837Z,3.73
2018-08-22T18:49:15.003Z,3.90
2018-08-22T18:51:46.206Z,4.70
2018-08-22T18:54:17.967Z,4.70
2018-08-22T18:56:46.853Z,4.40
2018-08-22T18:59:23.482Z,5.50
2018-08-22T19:01:52.631Z,4.57
2018-08-22T19:04:20.846Z,5.50
2018-08-22T19:06:49.386Z,5.07
2018-08-22T19:09:18.535Z,5.17
2018-08-22T19:11:46.774Z,5.47
2018-08-22T19:14:15.274Z,5.60
2018-08-22T19:16:43.443Z,4.97
2018-08-22T19:19:11.985Z,5.10
2018-08-22T19:21:40.166Z,5.07
2018-08-22T19:24:09.329Z,5.53
2018-08-22T19:26:38.162Z,5.47
2018-08-22T19:29:06.799Z,5.77
2018-08-22T19:31:36.311Z,6.10
2018-08-22T19:34:04.825Z,5.60
2018-08-22T19:36:33.968Z,5.97
2018-08-22T19:39:02.154Z,5.60
2018-08-22T19:41:32.701Z,6.20
2018-08-22T19:44:00.870Z,5.90
2018-08-22T19:46:29.387Z,5.10
2018-08-22T19:48:57.597Z,5.80
2018-08-22T19:51:26.304Z,5.47
2018-08-22T19:54:00.993Z,5.00
2018-08-22T19:56:29.752Z,5.43
2018-08-22T19:58:58.194Z,5.50
2018-08-22T20:01:31.284Z,5.70
2018-08-22T20:03:59.910Z,5.60
2018-08-22T20:06:28.497Z,4.87
2018-08-22T20:08:58.217Z,5.90
2018-08-22T20:11:26.773Z,5.87
2018-08-22T20:13:58.633Z,5.33
2018-08-22T20:16:26.842Z,5.20
2018-08-22T20:18:57.551Z,5.87
2018-08-22T20:21:42.181Z,5.93
2018-08-22T20:24:12.095Z,5.83
2018-08-22T20:26:48.792Z,5.40
2018-08-22T20:29:16.998Z,6.43
2018-08-22T20:31:46.469Z,6.63
2018-08-22T20:34:15.883Z,6.00
2018-08-22T20:36:46.030Z,6.20
2018-08-22T20:39:14.618Z,6.00
2018-08-22T20:41:43.793Z,6.70
2018-08-22T20:44:15.978Z,6.30
2018-08-22T20:46:44.893Z,6.30
2018-08-22T20:49:13.353Z,6.40
2018-08-22T20:51:42.258Z,6.57
2018-08-22T20:54:12.946Z,6.30
2018-08-22T20:56:48.355Z,7.67
2018-08-22T20:59:18.644Z,7.17
2018-08-22T21:02:03.704Z,6.77
2018-08-22T21:04:32.206Z,6.93
2018-08-22T21:07:00.894Z,6.77
2018-08-22T21:09:29.102Z,8.07
2018-08-22T21:11:59.814Z,7.10
2018-08-22T21:14:30.331Z,7.50
2018-08-22T21:16:58.648Z,7.50
2018-08-22T21:19:26.872Z,7.70
2018-08-22T21:21:55.386Z,7.43
2018-08-22T21:24:24.339Z,7.50
2018-08-22T21:26:52.957Z,7.23
2018-08-22T21:29:22.201Z,6.67
2018-08-22T21:31:50.396Z,7.00
2018-08-22T21:34:21.431Z,7.33
2018-08-22T21:36:49.638Z,7.90
2018-08-22T21:39:25.158Z,6.50
2018-08-22T21:41:54.445Z,7.95
2018-08-22T21:44:23.549Z,8.13
2018-08-22T21:46:59.104Z,6.93
2018-08-22T21:49:28.204Z,6.90
2018-08-22T21:51:59.069Z,7.65
2018-08-22T21:54:27.993Z,7.60
2018-08-22T21:56:56.214Z,7.20
2018-08-22T21:59:24.416Z,7.70
2018-08-22T22:01:58.157Z,7.50
2018-08-22T22:04:33.437Z,6.92
2018-08-22T22:07:03.576Z,6.20
2018-08-22T22:09:35.631Z,6.55
2018-08-22T22:12:12.537Z,6.58
2018-08-22T22:14:46.175Z,7.25
2018-08-22T22:17:14.369Z,6.67
2018-08-22T22:19:43.501Z,7.35
2018-08-22T22:25:06.845Z,7.10
2018-08-22T22:27:35.303Z,6.20
2018-08-22T22:30:05.465Z,6.87
2018-08-22T22:32:34.748Z,6.87
2018-08-22T22:35:03.985Z,6.97
2018-08-22T22:37:32.433Z,6.58
2018-08-22T22:40:00.951Z,7.33
2018-08-22T22:42:30.104Z,7.15
2018-08-22T22:45:00.033Z,6.50
2018-08-22T22:47:31.094Z,7.10
2018-08-22T22:56:58.748Z,6.72
2018-08-22T22:59:27.201Z,7.40
2018-08-22T23:01:55.688Z,6.78
2018-08-22T23:04:25.251Z,6.37
2018-08-22T23:07:02.902Z,5.83
2018-08-22T23:09:40.823Z,6.85
2018-08-22T23:12:09.298Z,6.97
2018-08-22T23:14:38.205Z,6.87
2018-08-22T23:17:06.733Z,6.83
2018-08-22T23:19:35.201Z,6.33
2018-08-22T23:22:04.148Z,7.10
2018-08-22T23:24:33.195Z,6.87
2018-08-22T23:27:01.654Z,7.40
2018-08-22T23:29:30.111Z,6.33
2018-08-22T23:31:58.558Z,6.35
2018-08-22T23:34:27.029Z,6.17
2018-08-22T23:36:55.497Z,7.15
2018-08-22T23:39:23.947Z,6.75
2018-08-22T23:41:52.769Z,7.72
2018-08-22T23:44:21.230Z,7.62
2018-08-22T23:46:49.697Z,7.33
2018-08-22T23:49:18.157Z,6.97
2018-08-22T23:51:46.688Z,7.40
2018-08-22T23:54:15.137Z,6.37
2018-08-22T23:56:43.612Z,7.83
2018-08-22T23:59:12.129Z,7.05
